sensor_id;sensor_type;location;lat;lon;timestamp;temperature;humidity
12268;DHT22;6196;48.398;11.736;2023-10-19T00:00:56;8.40;99.90
12268;DHT22;6196;48.398;11.736;2023-10-19T00:03:24;8.40;99.90
12268;DHT22;6196;48.398;11.736;2023-10-19T00:05:51;8.50;99.90
12268;DHT22;6196;48.398;11.736;2023-10-19T00:08:18;8.60;99.90
12268;DHT22;6196;48.398;11.736;2023-10-19T00:10:53;8.50;99.90
12268;DHT22;6196;48.398;11.736;2023-10-19T00:13:29;8.50;99.90
12268;DHT22;6196;48.398;11.736;2023-10-19T00:15:57;8.40;99.90
12268;DHT22;6196;48.398;11.736;2023-10-19T00:18:24;8.40;99.90
12268;DHT22;6196;48.398;11.736;2023-10-19T00:20:53;8.40;99.90
12268;DHT22;6196;48.398;11.736;2023-10-19T00:23:37;8.30;99.90
12268;DHT22;6196;48.398;11.736;2023-10-19T00:26:06;8.30;99.90
12268;DHT22;6196;48.398;11.736;2023-10-19T00:28:40;8.30;99.90
12268;DHT22;6196;48.398;11.736;2023-10-19T00:31:07;8.30;99.90
12268;DHT22;6196;48.398;11.736;2023-10-19T00:33:35;8.20;99.90
12268;DHT22;6196;48.398;11.736;2023-10-19T00:36:07;8.20;99.90
12268;DHT22;6196;48.398;11.736;2023-10-19T00:38:35;8.20;99.90
12268;DHT22;6196;48.398;11.736;2023-10-19T00:41:04;8.20;99.90
12268;DHT22;6196;48.398;11.736;2023-10-19T00:43:40;8.20;99.90
12268;DHT22;6196;48.398;11.736;2023-10-19T00:46:15;8.20;99.90
12268;DHT22;6196;48.398;11.736;2023-10-19T00:48:55;8.20;99.90
12268;DHT22;6196;48.398;11.736;2023-10-19T00:51:37;8.20;99.90
12268;DHT22;6196;48.398;11.736;2023-10-19T00:54:20;8.30;99.90
12268;DHT22;6196;48.398;11.736;2023-10-19T00:57:08;8.30;99.90
12268;DHT22;6196;48.398;11.736;2023-10-19T00:59:40;8.30;99.90
12268;DHT22;6196;48.398;11.736;2023-10-19T01:02:31;8.30;99.90
12268;DHT22;6196;48.398;11.736;2023-10-19T01:04:57;8.40;99.90
12268;DHT22;6196;48.398;11.736;2023-10-19T01:07:31;8.30;99.90
12268;DHT22;6196;48.398;11.736;2023-10-19T01:10:02;8.30;99.90
12268;DHT22;6196;48.398;11.736;2023-10-19T01:12:35;8.40;99.90
12268;DHT22;6196;48.398;11.736;2023-10-19T01:15:17;8.40;99.90
12268;DHT22;6196;48.398;11.736;2023-10-19T01:17:50;8.40;99.90
12268;DHT22;6196;48.398;11.736;2023-10-19T01:20:22;8.40;99.90
12268;DHT22;6196;48.398;11.736;2023-10-19T01:23:07;8.40;99.90
12268;DHT22;6196;48.398;11.736;2023-10-19T01:25:45;8.50;99.90
12268;DHT22;6196;48.398;11.736;2023-10-19T01:28:30;8.50;99.90
12268;DHT22;6196;48.398;11.736;2023-10-19T01:31:12;8.50;99.90
12268;DHT22;6196;48.398;11.736;2023-10-19T01:33:50;8.50;99.90
12268;DHT22;6196;48.398;11.736;2023-10-19T01:36:17;8.50;99.90
12268;DHT22;6196;48.398;11.736;2023-10-19T01:38:50;8.50;99.90
12268;DHT22;6196;48.398;11.736;2023-10-19T01:41:23;8.60;99.90
12268;DHT22;6196;48.398;11.736;2023-10-19T01:43:51;8.60;99.90
12268;DHT22;6196;48.398;11.736;2023-10-19T01:46:23;8.60;99.90
12268;DHT22;6196;48.398;11.736;2023-10-19T01:48:53;8.60;99.90
12268;DHT22;6196;48.398;11.736;2023-10-19T01:51:26;8.50;99.90
12268;DHT22;6196;48.398;11.736;2023-10-19T01:53:56;8.60;99.90
12268;DHT22;6196;48.398;11.736;2023-10-19T01:56:24;8.70;99.90
12268;DHT22;6196;48.398;11.736;2023-10-19T01:58:51;8.70;99.90
12268;DHT22;6196;48.398;11.736;2023-10-19T02:01:19;8.70;99.90
12268;DHT22;6196;48.398;11.736;2023-10-19T02:03:48;8.70;99.90
12268;DHT22;6196;48.398;11.736;2023-10-19T02:06:21;8.70;99.90
12268;DHT22;6196;48.398;11.736;2023-10-19T02:09:02;8.60;99.90
12268;DHT22;6196;48.398;11.736;2023-10-19T02:11:46;8.50;99.90
12268;DHT22;6196;48.398;11.736;2023-10-19T02:14:16;8.40;99.90
12268;DHT22;6196;48.398;11.736;2023-10-19T02:16:54;8.40;99.90
12268;DHT22;6196;48.398;11.736;2023-10-19T02:19:27;8.50;99.90
12268;DHT22;6196;48.398;11.736;2023-10-19T02:21:57;8.60;99.90
12268;DHT22;6196;48.398;11.736;2023-10-19T02:24:25;8.60;99.90
12268;DHT22;6196;48.398;11.736;2023-10-19T02:26:54;8.70;99.90
12268;DHT22;6196;48.398;11.736;2023-10-19T02:29:23;8.60;99.90
12268;DHT22;6196;48.398;11.736;2023-10-19T02:31:50;8.70;99.90
12268;DHT22;6196;48.398;11.736;2023-10-19T02:34:17;8.80;99.90
12268;DHT22;6196;48.398;11.736;2023-10-19T02:36:45;8.80;99.90
12268;DHT22;6196;48.398;11.736;2023-10-19T02:39:14;8.80;99.90
12268;DHT22;6196;48.398;11.736;2023-10-19T02:41:45;8.80;99.90
12268;DHT22;6196;48.398;11.736;2023-10-19T02:44:16;8.80;99.90
12268;DHT22;6196;48.398;11.736;2023-10-19T02:46:45;8.80;99.90
12268;DHT22;6196;48.398;11.736;2023-10-19T02:49:14;8.80;99.90
12268;DHT22;6196;48.398;11.736;2023-10-19T02:51:45;8.70;99.90
12268;DHT22;6196;48.398;11.736;2023-10-19T02:54:14;8.80;99.90
12268;DHT22;6196;48.398;11.736;2023-10-19T02:56:53;8.80;99.90
12268;DHT22;6196;48.398;11.736;2023-10-19T02:59:25;8.70;99.90
12268;DHT22;6196;48.398;11.736;2023-10-19T03:01:57;8.70;99.90
12268;DHT22;6196;48.398;11.736;2023-10-19T03:04:29;8.80;99.90
12268;DHT22;6196;48.398;11.736;2023-10-19T03:06:57;8.70;99.90
12268;DHT22;6196;48.398;11.736;2023-10-19T03:09:24;8.80;99.90
12268;DHT22;6196;48.398;11.736;2023-10-19T03:11:54;8.80;99.90
12268;DHT22;6196;48.398;11.736;2023-10-19T03:14:26;8.70;99.90
12268;DHT22;6196;48.398;11.736;2023-10-19T03:16:54;8.70;99.90
12268;DHT22;6196;48.398;11.736;2023-10-19T03:19:22;8.70;99.90
12268;DHT22;6196;48.398;11.736;2023-10-19T03:21:52;8.70;99.90
12268;DHT22;6196;48.398;11.736;2023-10-19T03:24:19;8.60;99.90
12268;DHT22;6196;48.398;11.736;2023-10-19T03:27:06;8.60;99.90
12268;DHT22;6196;48.398;11.736;2023-10-19T03:29:43;8.70;99.90
12268;DHT22;6196;48.398;11.736;2023-10-19T03:32:26;8.60;99.90
12268;DHT22;6196;48.398;11.736;2023-10-19T03:34:55;8.60;99.90
12268;DHT22;6196;48.398;11.736;2023-10-19T03:37:23;8.60;99.90
12268;DHT22;6196;48.398;11.736;2023-10-19T03:39:52;8.60;99.90
12268;DHT22;6196;48.398;11.736;2023-10-19T03:42:23;8.50;99.90
12268;DHT22;6196;48.398;11.736;2023-10-19T03:44:58;8.40;99.90
12268;DHT22;6196;48.398;11.736;2023-10-19T03:47:28;8.50;99.90
12268;DHT22;6196;48.398;11.736;2023-10-19T03:50:02;8.60;99.90
12268;DHT22;6196;48.398;11.736;2023-10-19T03:52:40;8.50;99.90
12268;DHT22;6196;48.398;11.736;2023-10-19T03:55:08;8.40;99.90
12268;DHT22;6196;48.398;11.736;2023-10-19T03:57:41;8.40;99.90
12268;DHT22;6196;48.398;11.736;2023-10-19T04:00:14;8.40;99.90
12268;DHT22;6196;48.398;11.736;2023-10-19T04:02:46;8.40;99.90
12268;DHT22;6196;48.398;11.736;2023-10-19T04:05:13;8.20;99.90
12268;DHT22;6196;48.398;11.736;2023-10-19T04:07:49;7.90;99.90
12268;DHT22;6196;48.398;11.736;2023-10-19T04:10:18;8.00;99.90
12268;DHT22;6196;48.398;11.736;2023-10-19T04:13:05;8.10;99.90
12268;DHT22;6196;48.398;11.736;2023-10-19T04:15:40;8.20;99.90
12268;DHT22;6196;48.398;11.736;2023-10-19T04:18:08;8.30;99.90
12268;DHT22;6196;48.398;11.736;2023-10-19T04:20:36;8.30;99.90
12268;DHT22;6196;48.398;11.736;2023-10-19T04:23:23;8.40;99.90
12268;DHT22;6196;48.398;11.736;2023-10-19T04:25:55;8.50;99.90
12268;DHT22;6196;48.398;11.736;2023-10-19T04:28:23;8.50;99.90
12268;DHT22;6196;48.398;11.736;2023-10-19T04:31:05;8.40;99.90
12268;DHT22;6196;48.398;11.736;2023-10-19T04:33:33;8.50;99.90
12268;DHT22;6196;48.398;11.736;2023-10-19T04:36:03;8.50;99.90
12268;DHT22;6196;48.398;11.736;2023-10-19T04:38:32;8.50;99.90
12268;DHT22;6196;48.398;11.736;2023-10-19T04:41:10;8.50;99.90
12268;DHT22;6196;48.398;11.736;2023-10-19T04:43:38;8.50;99.90
12268;DHT22;6196;48.398;11.736;2023-10-19T04:46:10;8.60;99.90
12268;DHT22;6196;48.398;11.736;2023-10-19T04:48:39;8.60;99.90
12268;DHT22;6196;48.398;11.736;2023-10-19T04:51:07;8.60;99.90
12268;DHT22;6196;48.398;11.736;2023-10-19T04:53:36;8.60;99.90
12268;DHT22;6196;48.398;11.736;2023-10-19T04:56:05;8.60;99.90
12268;DHT22;6196;48.398;11.736;2023-10-19T04:58:35;8.50;99.90
12268;DHT22;6196;48.398;11.736;2023-10-19T05:01:03;8.50;99.90
12268;DHT22;6196;48.398;11.736;2023-10-19T05:03:32;8.50;99.90
12268;DHT22;6196;48.398;11.736;2023-10-19T05:05:59;8.50;99.90
12268;DHT22;6196;48.398;11.736;2023-10-19T05:08:27;8.50;99.90
12268;DHT22;6196;48.398;11.736;2023-10-19T05:10:55;8.50;99.90
12268;DHT22;6196;48.398;11.736;2023-10-19T05:13:24;8.50;99.90
12268;DHT22;6196;48.398;11.736;2023-10-19T05:15:55;8.60;99.90
12268;DHT22;6196;48.398;11.736;2023-10-19T05:18:23;8.50;99.90
12268;DHT22;6196;48.398;11.736;2023-10-19T05:20:50;8.50;99.90
12268;DHT22;6196;48.398;11.736;2023-10-19T05:23:25;8.50;99.90
12268;DHT22;6196;48.398;11.736;2023-10-19T05:26:00;8.50;99.90
12268;DHT22;6196;48.398;11.736;2023-10-19T05:28:29;8.50;99.90
12268;DHT22;6196;48.398;11.736;2023-10-19T05:30:56;8.50;99.90
12268;DHT22;6196;48.398;11.736;2023-10-19T05:33:27;8.50;99.90
12268;DHT22;6196;48.398;11.736;2023-10-19T05:35:54;8.50;99.90
12268;DHT22;6196;48.398;11.736;2023-10-19T05:38:21;8.40;99.90
12268;DHT22;6196;48.398;11.736;2023-10-19T05:40:49;8.40;99.90
12268;DHT22;6196;48.398;11.736;2023-10-19T05:43:16;8.40;99.90
12268;DHT22;6196;48.398;11.736;2023-10-19T05:45:44;8.30;99.90
12268;DHT22;6196;48.398;11.736;2023-10-19T05:48:11;8.30;99.90
12268;DHT22;6196;48.398;11.736;2023-10-19T05:50:38;8.40;99.90
12268;DHT22;6196;48.398;11.736;2023-10-19T05:53:05;8.40;99.90
12268;DHT22;6196;48.398;11.736;2023-10-19T05:55:32;8.40;99.90
12268;DHT22;6196;48.398;11.736;2023-10-19T05:58:01;8.40;99.90
12268;DHT22;6196;48.398;11.736;2023-10-19T06:00:31;8.40;99.90
12268;DHT22;6196;48.398;11.736;2023-10-19T06:02:57;8.40;99.90
12268;DHT22;6196;48.398;11.736;2023-10-19T06:05:26;8.40;99.90
12268;DHT22;6196;48.398;11.736;2023-10-19T06:07:53;8.40;99.90
12268;DHT22;6196;48.398;11.736;2023-10-19T06:10:21;8.30;99.90
12268;DHT22;6196;48.398;11.736;2023-10-19T06:12:50;8.30;99.90
12268;DHT22;6196;48.398;11.736;2023-10-19T06:15:21;8.30;99.90
12268;DHT22;6196;48.398;11.736;2023-10-19T06:17:51;8.30;99.90
12268;DHT22;6196;48.398;11.736;2023-10-19T06:20:19;8.40;99.90
12268;DHT22;6196;48.398;11.736;2023-10-19T06:22:53;8.40;99.90
12268;DHT22;6196;48.398;11.736;2023-10-19T06:25:24;8.40;99.90
12268;DHT22;6196;48.398;11.736;2023-10-19T06:27:52;8.40;99.90
12268;DHT22;6196;48.398;11.736;2023-10-19T06:30:20;8.40;99.90
12268;DHT22;6196;48.398;11.736;2023-10-19T06:32:51;8.50;99.90
12268;DHT22;6196;48.398;11.736;2023-10-19T06:35:19;8.50;99.90
12268;DHT22;6196;48.398;11.736;2023-10-19T06:37:47;8.60;99.90
12268;DHT22;6196;48.398;11.736;2023-10-19T06:40:16;8.50;99.90
12268;DHT22;6196;48.398;11.736;2023-10-19T06:42:44;8.50;99.90
12268;DHT22;6196;48.398;11.736;2023-10-19T06:45:16;8.60;99.90
12268;DHT22;6196;48.398;11.736;2023-10-19T06:47:47;8.50;99.90
12268;DHT22;6196;48.398;11.736;2023-10-19T06:50:17;8.60;99.90
12268;DHT22;6196;48.398;11.736;2023-10-19T06:52:46;8.70;99.90
12268;DHT22;6196;48.398;11.736;2023-10-19T06:55:15;8.80;99.90
12268;DHT22;6196;48.398;11.736;2023-10-19T06:57:53;8.90;99.90
12268;DHT22;6196;48.398;11.736;2023-10-19T07:00:23;9.10;99.90
12268;DHT22;6196;48.398;11.736;2023-10-19T07:02:55;9.30;99.90
12268;DHT22;6196;48.398;11.736;2023-10-19T07:05:23;9.40;99.90
12268;DHT22;6196;48.398;11.736;2023-10-19T07:07:57;9.50;99.90
12268;DHT22;6196;48.398;11.736;2023-10-19T07:10:26;9.60;99.90
12268;DHT22;6196;48.398;11.736;2023-10-19T07:12:57;9.70;99.90
12268;DHT22;6196;48.398;11.736;2023-10-19T07:15:24;9.90;99.90
12268;DHT22;6196;48.398;11.736;2023-10-19T07:17:53;10.00;99.90
12268;DHT22;6196;48.398;11.736;2023-10-19T07:20:21;10.00;99.90
12268;DHT22;6196;48.398;11.736;2023-10-19T07:22:53;10.10;99.90
12268;DHT22;6196;48.398;11.736;2023-10-19T07:25:24;10.10;99.90
12268;DHT22;6196;48.398;11.736;2023-10-19T07:27:53;10.10;99.90
12268;DHT22;6196;48.398;11.736;2023-10-19T07:30:20;10.00;99.90
12268;DHT22;6196;48.398;11.736;2023-10-19T07:32:49;10.10;99.90
12268;DHT22;6196;48.398;11.736;2023-10-19T07:35:26;10.10;99.90
12268;DHT22;6196;48.398;11.736;2023-10-19T07:37:55;10.00;99.90
12268;DHT22;6196;48.398;11.736;2023-10-19T07:40:23;9.90;99.90
12268;DHT22;6196;48.398;11.736;2023-10-19T07:42:51;9.90;99.90
12268;DHT22;6196;48.398;11.736;2023-10-19T07:45:21;10.10;99.90
12268;DHT22;6196;48.398;11.736;2023-10-19T07:47:48;10.40;99.90
12268;DHT22;6196;48.398;11.736;2023-10-19T07:50:15;10.50;99.90
12268;DHT22;6196;48.398;11.736;2023-10-19T07:55:17;10.60;99.90
12268;DHT22;6196;48.398;11.736;2023-10-19T07:57:44;10.70;99.90
12268;DHT22;6196;48.398;11.736;2023-10-19T08:00:12;10.60;99.90
12268;DHT22;6196;48.398;11.736;2023-10-19T08:02:40;10.60;99.90
12268;DHT22;6196;48.398;11.736;2023-10-19T08:05:15;10.60;99.90
12268;DHT22;6196;48.398;11.736;2023-10-19T08:07:42;10.40;99.90
12268;DHT22;6196;48.398;11.736;2023-10-19T08:10:10;10.70;99.90
12268;DHT22;6196;48.398;11.736;2023-10-19T08:12:39;10.70;99.90
12268;DHT22;6196;48.398;11.736;2023-10-19T08:15:10;11.10;99.90
12268;DHT22;6196;48.398;11.736;2023-10-19T08:17:38;11.30;99.90
12268;DHT22;6196;48.398;11.736;2023-10-19T08:20:07;11.60;99.90
12268;DHT22;6196;48.398;11.736;2023-10-19T08:22:36;11.60;99.90
12268;DHT22;6196;48.398;11.736;2023-10-19T08:25:04;11.70;99.90
12268;DHT22;6196;48.398;11.736;2023-10-19T08:27:38;11.80;99.90
12268;DHT22;6196;48.398;11.736;2023-10-19T08:30:06;11.80;99.90
12268;DHT22;6196;48.398;11.736;2023-10-19T08:32:35;12.00;99.90
12268;DHT22;6196;48.398;11.736;2023-10-19T08:35:03;12.10;99.90
12268;DHT22;6196;48.398;11.736;2023-10-19T08:37:31;12.40;99.90
12268;DHT22;6196;48.398;11.736;2023-10-19T08:39:59;12.60;99.90
12268;DHT22;6196;48.398;11.736;2023-10-19T08:42:26;12.70;99.90
12268;DHT22;6196;48.398;11.736;2023-10-19T08:44:56;12.90;99.90
12268;DHT22;6196;48.398;11.736;2023-10-19T08:47:26;13.00;99.90
12268;DHT22;6196;48.398;11.736;2023-10-19T08:49:53;13.10;99.90
12268;DHT22;6196;48.398;11.736;2023-10-19T08:52:24;13.10;99.90
12268;DHT22;6196;48.398;11.736;2023-10-19T08:54:53;13.10;99.90
12268;DHT22;6196;48.398;11.736;2023-10-19T08:57:20;13.10;99.90
12268;DHT22;6196;48.398;11.736;2023-10-19T08:59:47;12.70;99.90
12268;DHT22;6196;48.398;11.736;2023-10-19T09:02:14;12.80;99.90
12268;DHT22;6196;48.398;11.736;2023-10-19T09:04:43;12.90;99.90
12268;DHT22;6196;48.398;11.736;2023-10-19T09:07:11;12.90;99.90
12268;DHT22;6196;48.398;11.736;2023-10-19T09:09:38;13.10;99.90
12268;DHT22;6196;48.398;11.736;2023-10-19T09:12:07;13.10;99.90
12268;DHT22;6196;48.398;11.736;2023-10-19T09:14:36;13.10;99.90
12268;DHT22;6196;48.398;11.736;2023-10-19T09:17:07;13.10;99.90
12268;DHT22;6196;48.398;11.736;2023-10-19T09:19:43;13.10;99.90
12268;DHT22;6196;48.398;11.736;2023-10-19T09:22:14;13.10;99.90
12268;DHT22;6196;48.398;11.736;2023-10-19T09:24:50;13.10;99.90
12268;DHT22;6196;48.398;11.736;2023-10-19T09:27:20;13.20;99.90
12268;DHT22;6196;48.398;11.736;2023-10-19T09:29:48;13.00;99.90
12268;DHT22;6196;48.398;11.736;2023-10-19T09:32:16;13.10;99.90
12268;DHT22;6196;48.398;11.736;2023-10-19T09:34:44;13.40;99.90
12268;DHT22;6196;48.398;11.736;2023-10-19T09:37:11;13.50;99.90
12268;DHT22;6196;48.398;11.736;2023-10-19T09:39:39;13.60;99.90
12268;DHT22;6196;48.398;11.736;2023-10-19T09:42:10;13.80;99.90
12268;DHT22;6196;48.398;11.736;2023-10-19T09:47:13;14.00;99.90
12268;DHT22;6196;48.398;11.736;2023-10-19T09:49:44;14.10;99.90
12268;DHT22;6196;48.398;11.736;2023-10-19T09:52:12;14.20;99.90
12268;DHT22;6196;48.398;11.736;2023-10-19T09:54:48;14.20;99.90
12268;DHT22;6196;48.398;11.736;2023-10-19T09:57:44;14.20;99.90
12268;DHT22;6196;48.398;11.736;2023-10-19T10:00:15;14.30;99.90
12268;DHT22;6196;48.398;11.736;2023-10-19T10:02:50;14.40;99.90
12268;DHT22;6196;48.398;11.736;2023-10-19T10:10:50;14.60;99.90
12268;DHT22;6196;48.398;11.736;2023-10-19T10:15:55;14.90;99.90
12268;DHT22;6196;48.398;11.736;2023-10-19T10:18:30;15.00;99.90
12268;DHT22;6196;48.398;11.736;2023-10-19T10:21:14;15.00;99.90
12268;DHT22;6196;48.398;11.736;2023-10-19T10:23:44;15.20;99.90
12268;DHT22;6196;48.398;11.736;2023-10-19T10:26:15;15.20;99.90
12268;DHT22;6196;48.398;11.736;2023-10-19T10:28:47;15.60;99.90
12268;DHT22;6196;48.398;11.736;2023-10-19T10:31:35;16.20;99.90
12268;DHT22;6196;48.398;11.736;2023-10-19T10:34:09;16.90;99.90
12268;DHT22;6196;48.398;11.736;2023-10-19T10:39:30;18.10;99.90
12268;DHT22;6196;48.398;11.736;2023-10-19T10:41:59;18.00;99.90
12268;DHT22;6196;48.398;11.736;2023-10-19T10:44:43;17.90;99.90
12268;DHT22;6196;48.398;11.736;2023-10-19T10:47:18;17.90;99.90
12268;DHT22;6196;48.398;11.736;2023-10-19T10:49:59;17.90;99.90
12268;DHT22;6196;48.398;11.736;2023-10-19T10:52:34;17.90;99.90
12268;DHT22;6196;48.398;11.736;2023-10-19T10:55:13;17.70;99.90
12268;DHT22;6196;48.398;11.736;2023-10-19T10:57:42;17.50;99.90
12268;DHT22;6196;48.398;11.736;2023-10-19T11:00:14;17.20;99.90
12268;DHT22;6196;48.398;11.736;2023-10-19T11:03:04;17.00;99.90
12268;DHT22;6196;48.398;11.736;2023-10-19T11:05:35;16.90;99.90
12268;DHT22;6196;48.398;11.736;2023-10-19T11:08:13;16.90;99.90
12268;DHT22;6196;48.398;11.736;2023-10-19T11:10:44;16.70;99.90
12268;DHT22;6196;48.398;11.736;2023-10-19T11:13:18;16.40;99.90
12268;DHT22;6196;48.398;11.736;2023-10-19T11:15:52;16.30;99.90
12268;DHT22;6196;48.398;11.736;2023-10-19T11:18:39;16.30;99.90
12268;DHT22;6196;48.398;11.736;2023-10-19T11:21:10;16.20;99.90
12268;DHT22;6196;48.398;11.736;2023-10-19T11:23:48;16.20;99.90
12268;DHT22;6196;48.398;11.736;2023-10-19T11:26:18;16.10;99.90
12268;DHT22;6196;48.398;11.736;2023-10-19T11:28:46;16.10;99.90
12268;DHT22;6196;48.398;11.736;2023-10-19T11:31:22;15.90;99.90
12268;DHT22;6196;48.398;11.736;2023-10-19T11:33:51;15.90;99.90
12268;DHT22;6196;48.398;11.736;2023-10-19T11:36:20;15.90;99.90
12268;DHT22;6196;48.398;11.736;2023-10-19T11:38:50;16.00;99.90
12268;DHT22;6196;48.398;11.736;2023-10-19T11:41:21;16.00;99.90
12268;DHT22;6196;48.398;11.736;2023-10-19T11:43:48;15.90;99.90
12268;DHT22;6196;48.398;11.736;2023-10-19T11:46:19;15.90;99.90
12268;DHT22;6196;48.398;11.736;2023-10-19T11:48:49;15.80;99.90
12268;DHT22;6196;48.398;11.736;2023-10-19T11:51:16;15.60;99.90
12268;DHT22;6196;48.398;11.736;2023-10-19T11:53:43;15.60;99.90
12268;DHT22;6196;48.398;11.736;2023-10-19T11:56:12;15.60;99.90
12268;DHT22;6196;48.398;11.736;2023-10-19T11:58:40;15.60;99.90
12268;DHT22;6196;48.398;11.736;2023-10-19T12:01:10;15.70;99.90
12268;DHT22;6196;48.398;11.736;2023-10-19T12:03:41;15.60;99.90
12268;DHT22;6196;48.398;11.736;2023-10-19T12:06:09;15.60;99.90
12268;DHT22;6196;48.398;11.736;2023-10-19T12:08:37;15.60;99.90
12268;DHT22;6196;48.398;11.736;2023-10-19T12:11:05;15.70;99.90
12268;DHT22;6196;48.398;11.736;2023-10-19T12:13:43;15.70;99.90
12268;DHT22;6196;48.398;11.736;2023-10-19T12:16:11;15.90;99.90
12268;DHT22;6196;48.398;11.736;2023-10-19T12:18:47;16.00;99.90
12268;DHT22;6196;48.398;11.736;2023-10-19T12:21:15;16.10;99.90
12268;DHT22;6196;48.398;11.736;2023-10-19T12:23:45;16.40;99.90
12268;DHT22;6196;48.398;11.736;2023-10-19T12:26:17;16.50;99.90
12268;DHT22;6196;48.398;11.736;2023-10-19T12:28:46;16.80;99.90
12268;DHT22;6196;48.398;11.736;2023-10-19T12:31:16;17.20;99.90
12268;DHT22;6196;48.398;11.736;2023-10-19T12:33:45;17.40;99.90
12268;DHT22;6196;48.398;11.736;2023-10-19T12:36:12;17.60;99.90
12268;DHT22;6196;48.398;11.736;2023-10-19T12:39:05;17.80;99.90
12268;DHT22;6196;48.398;11.736;2023-10-19T12:41:36;18.00;99.90
12268;DHT22;6196;48.398;11.736;2023-10-19T12:44:03;18.00;99.90
12268;DHT22;6196;48.398;11.736;2023-10-19T12:46:38;18.60;99.90
12268;DHT22;6196;48.398;11.736;2023-10-19T12:49:06;19.50;99.90
12268;DHT22;6196;48.398;11.736;2023-10-19T12:51:40;19.90;99.90
12268;DHT22;6196;48.398;11.736;2023-10-19T12:54:08;19.80;99.90
12268;DHT22;6196;48.398;11.736;2023-10-19T12:56:37;19.40;99.90
12268;DHT22;6196;48.398;11.736;2023-10-19T12:59:05;18.90;99.90
12268;DHT22;6196;48.398;11.736;2023-10-19T13:01:34;18.70;99.90
12268;DHT22;6196;48.398;11.736;2023-10-19T13:04:02;19.10;99.90
12268;DHT22;6196;48.398;11.736;2023-10-19T13:06:43;19.50;99.90
12268;DHT22;6196;48.398;11.736;2023-10-19T13:09:11;19.40;99.90
12268;DHT22;6196;48.398;11.736;2023-10-19T13:11:41;19.90;99.90
12268;DHT22;6196;48.398;11.736;2023-10-19T13:14:10;20.70;99.90
12268;DHT22;6196;48.398;11.736;2023-10-19T13:16:38;20.70;99.90
12268;DHT22;6196;48.398;11.736;2023-10-19T13:19:05;20.10;99.90
12268;DHT22;6196;48.398;11.736;2023-10-19T13:21:40;19.70;99.90
12268;DHT22;6196;48.398;11.736;2023-10-19T13:24:09;19.20;99.90
12268;DHT22;6196;48.398;11.736;2023-10-19T13:26:36;18.80;99.90
12268;DHT22;6196;48.398;11.736;2023-10-19T13:29:04;18.50;99.90
12268;DHT22;6196;48.398;11.736;2023-10-19T13:31:31;18.30;99.90
12268;DHT22;6196;48.398;11.736;2023-10-19T13:33:59;18.10;99.90
12268;DHT22;6196;48.398;11.736;2023-10-19T13:36:26;17.80;99.90
12268;DHT22;6196;48.398;11.736;2023-10-19T13:38:53;17.70;99.90
12268;DHT22;6196;48.398;11.736;2023-10-19T13:41:21;17.70;99.90
12268;DHT22;6196;48.398;11.736;2023-10-19T13:43:48;17.70;99.90
12268;DHT22;6196;48.398;11.736;2023-10-19T13:46:15;17.70;99.90
12268;DHT22;6196;48.398;11.736;2023-10-19T13:48:42;17.60;99.90
12268;DHT22;6196;48.398;11.736;2023-10-19T13:51:09;17.50;99.90
12268;DHT22;6196;48.398;11.736;2023-10-19T13:53:42;17.20;99.90
12268;DHT22;6196;48.398;11.736;2023-10-19T13:56:12;17.00;99.90
12268;DHT22;6196;48.398;11.736;2023-10-19T13:58:41;16.80;99.90
12268;DHT22;6196;48.398;11.736;2023-10-19T14:01:09;16.70;99.90
12268;DHT22;6196;48.398;11.736;2023-10-19T14:03:40;16.50;99.90
12268;DHT22;6196;48.398;11.736;2023-10-19T14:06:14;16.50;99.90
12268;DHT22;6196;48.398;11.736;2023-10-19T14:08:42;16.40;99.90
12268;DHT22;6196;48.398;11.736;2023-10-19T14:11:09;16.30;99.90
12268;DHT22;6196;48.398;11.736;2023-10-19T14:13:36;16.30;99.90
12268;DHT22;6196;48.398;11.736;2023-10-19T14:16:07;16.20;99.90
12268;DHT22;6196;48.398;11.736;2023-10-19T14:18:36;16.20;99.90
12268;DHT22;6196;48.398;11.736;2023-10-19T14:21:16;16.20;99.90
12268;DHT22;6196;48.398;11.736;2023-10-19T14:23:45;16.10;99.90
12268;DHT22;6196;48.398;11.736;2023-10-19T14:26:12;16.00;99.90
12268;DHT22;6196;48.398;11.736;2023-10-19T14:28:41;15.80;99.90
12268;DHT22;6196;48.398;11.736;2023-10-19T14:31:08;15.80;99.90
12268;DHT22;6196;48.398;11.736;2023-10-19T14:33:35;15.80;99.90
12268;DHT22;6196;48.398;11.736;2023-10-19T14:36:04;15.70;99.90
12268;DHT22;6196;48.398;11.736;2023-10-19T14:38:31;15.70;99.90
12268;DHT22;6196;48.398;11.736;2023-10-19T14:40:58;15.80;99.90
12268;DHT22;6196;48.398;11.736;2023-10-19T14:43:26;15.80;99.90
12268;DHT22;6196;48.398;11.736;2023-10-19T14:45:55;15.90;99.90
12268;DHT22;6196;48.398;11.736;2023-10-19T14:48:23;15.90;99.90
12268;DHT22;6196;48.398;11.736;2023-10-19T14:50:50;15.90;99.90
12268;DHT22;6196;48.398;11.736;2023-10-19T14:53:18;15.80;99.90
12268;DHT22;6196;48.398;11.736;2023-10-19T14:55:45;15.60;99.90
12268;DHT22;6196;48.398;11.736;2023-10-19T14:58:14;15.50;99.90
12268;DHT22;6196;48.398;11.736;2023-10-19T15:00:41;15.40;99.90
12268;DHT22;6196;48.398;11.736;2023-10-19T15:03:10;15.40;99.90
12268;DHT22;6196;48.398;11.736;2023-10-19T15:05:38;15.40;99.90
12268;DHT22;6196;48.398;11.736;2023-10-19T15:08:06;15.50;99.90
12268;DHT22;6196;48.398;11.736;2023-10-19T15:10:35;15.60;99.90
12268;DHT22;6196;48.398;11.736;2023-10-19T15:13:06;15.80;99.90
12268;DHT22;6196;48.398;11.736;2023-10-19T15:15:33;15.80;99.90
12268;DHT22;6196;48.398;11.736;2023-10-19T15:18:00;15.80;99.90
12268;DHT22;6196;48.398;11.736;2023-10-19T15:20:29;15.60;99.90
12268;DHT22;6196;48.398;11.736;2023-10-19T15:22:57;15.50;99.90
12268;DHT22;6196;48.398;11.736;2023-10-19T15:25:24;15.50;99.90
12268;DHT22;6196;48.398;11.736;2023-10-19T15:27:52;15.50;99.90
12268;DHT22;6196;48.398;11.736;2023-10-19T15:30:20;15.50;99.90
12268;DHT22;6196;48.398;11.736;2023-10-19T15:32:49;15.30;99.90
12268;DHT22;6196;48.398;11.736;2023-10-19T15:35:17;15.20;99.90
12268;DHT22;6196;48.398;11.736;2023-10-19T15:37:51;15.10;99.90
12268;DHT22;6196;48.398;11.736;2023-10-19T15:40:24;15.20;99.90
12268;DHT22;6196;48.398;11.736;2023-10-19T15:42:52;15.10;99.90
12268;DHT22;6196;48.398;11.736;2023-10-19T15:45:25;15.00;99.90
12268;DHT22;6196;48.398;11.736;2023-10-19T15:47:53;14.90;99.90
12268;DHT22;6196;48.398;11.736;2023-10-19T15:50:21;14.80;99.90
12268;DHT22;6196;48.398;11.736;2023-10-19T15:52:49;14.80;99.90
12268;DHT22;6196;48.398;11.736;2023-10-19T15:55:18;14.80;99.90
12268;DHT22;6196;48.398;11.736;2023-10-19T15:57:48;14.80;99.90
12268;DHT22;6196;48.398;11.736;2023-10-19T16:00:17;14.80;99.90
12268;DHT22;6196;48.398;11.736;2023-10-19T16:02:44;14.80;99.90
12268;DHT22;6196;48.398;11.736;2023-10-19T16:05:12;14.70;99.90
12268;DHT22;6196;48.398;11.736;2023-10-19T16:07:42;14.60;99.90
12268;DHT22;6196;48.398;11.736;2023-10-19T16:10:10;14.50;99.90
12268;DHT22;6196;48.398;11.736;2023-10-19T16:12:42;14.40;99.90
12268;DHT22;6196;48.398;11.736;2023-10-19T16:15:10;14.40;99.90